Time;durP1;ratioP1;P1;durP2;ratioP2;P2;SDS_P1;SDS_P2;PMS_P1;PMS_P2;Temp;Humidity;BMP_temperature;BMP_pressure;BME280_temperature;BME280_humidity;BME280_pressure;Samples;Min_cycle;Max_cycle;Signal;HPM_P1;HPM_P2
2023/04/30 00:01:29;;;;;;;7.60;4.25;;;11.00;96.20;;;;;;4953740;28;20039;-77
2023/04/30 00:03:54;;;;;;;8.63;5.10;;;11.00;96.30;;;;;;4967735;28;20092;-77
2023/04/30 00:06:20;;;;;;;12.85;7.45;;;11.00;96.30;;;;;;4945628;28;20031;-77
2023/04/30 00:08:46;;;;;;;9.65;5.05;;;11.00;96.30;;;;;;4969965;28;20030;-77
2023/04/30 00:11:11;;;;;;;11.18;6.45;;;11.00;96.30;;;;;;4963986;28;20035;-78
2023/04/30 00:13:37;;;;;;;7.93;4.60;;;11.00;96.30;;;;;;4961525;28;20560;-78
2023/04/30 00:16:03;;;;;;;9.77;5.22;;;11.00;96.30;;;;;;4952818;28;20117;-79
2023/04/30 00:18:29;;;;;;;10.95;6.22;;;11.00;96.40;;;;;;4966616;28;20027;-76
2023/04/30 00:20:57;;;;;;;6.90;3.95;;;11.00;96.30;;;;;;4968200;28;20035;-77
2023/04/30 00:23:22;;;;;;;8.88;4.45;;;11.00;96.30;;;;;;4967262;28;20041;-78
2023/04/30 00:25:51;;;;;;;7.78;4.38;;;11.00;96.40;;;;;;4963085;28;20596;-78
2023/04/30 00:28:17;;;;;;;13.70;6.55;;;10.90;96.40;;;;;;4949807;28;20023;-77
2023/04/30 00:30:44;;;;;;;8.75;4.55;;;10.90;96.60;;;;;;4953906;28;20503;-78
2023/04/30 00:33:10;;;;;;;10.75;5.07;;;10.90;96.60;;;;;;4957519;28;20055;-80
2023/04/30 00:35:36;;;;;;;10.20;4.78;;;10.90;96.60;;;;;;4946547;28;20030;-78
2023/04/30 00:38:01;;;;;;;6.95;4.13;;;10.90;96.60;;;;;;4966131;28;20082;-79
2023/04/30 00:40:27;;;;;;;11.10;4.78;;;10.80;96.70;;;;;;4970543;28;20023;-79
2023/04/30 00:42:56;;;;;;;6.75;4.32;;;10.80;96.90;;;;;;4954548;28;20030;-79
2023/04/30 00:45:22;;;;;;;8.27;5.18;;;10.80;96.90;;;;;;4970069;28;20066;-78
2023/04/30 00:47:48;;;;;;;10.27;5.95;;;10.80;96.90;;;;;;4967410;28;20447;-78
2023/04/30 00:50:15;;;;;;;11.48;5.78;;;10.70;96.70;;;;;;4947992;28;20046;-78
2023/04/30 00:52:44;;;;;;;10.70;5.18;;;10.70;96.70;;;;;;4960390;28;20109;-77
2023/04/30 00:55:11;;;;;;;8.63;4.78;;;10.70;96.70;;;;;;4970456;28;20061;-78
2023/04/30 00:57:38;;;;;;;8.93;5.13;;;10.70;96.70;;;;;;4958860;28;20421;-78
2023/04/30 01:00:05;;;;;;;8.15;4.50;;;10.70;96.60;;;;;;4969239;28;20031;-78
2023/04/30 01:02:31;;;;;;;8.63;4.88;;;10.70;96.50;;;;;;4947602;29;20035;-79
2023/04/30 01:04:56;;;;;;;9.68;5.30;;;10.70;96.50;;;;;;4962935;28;20034;-77
2023/04/30 01:07:26;;;;;;;7.63;5.07;;;10.70;96.40;;;;;;4955006;28;20027;-77
2023/04/30 01:09:52;;;;;;;8.40;5.30;;;10.70;96.40;;;;;;4964636;28;20058;-78
2023/04/30 01:12:35;;;;;;;6.90;3.92;;;10.70;96.40;;;;;;4962350;28;20086;-77
2023/04/30 01:15:26;;;;;;;11.63;5.30;;;10.60;96.40;;;;;;4967920;28;20031;-78
2023/04/30 01:18:04;;;;;;;8.65;5.35;;;10.70;96.60;;;;;;4966379;28;20042;-76
2023/04/30 01:20:31;;;;;;;10.68;5.05;;;10.60;96.60;;;;;;4946758;28;20023;-77
2023/04/30 01:23:28;;;;;;;8.80;5.22;;;10.60;96.60;;;;;;4969939;28;20029;-79
2023/04/30 01:26:23;;;;;;;8.38;4.72;;;10.60;96.70;;;;;;4962622;28;20091;-78
2023/04/30 01:28:50;;;;;;;9.13;5.70;;;10.60;97.00;;;;;;4964529;28;20038;-77
2023/04/30 01:31:19;;;;;;;11.23;6.28;;;10.50;96.90;;;;;;4963495;28;20042;-78
2023/04/30 01:33:46;;;;;;;10.60;6.53;;;10.50;96.70;;;;;;4959454;28;20050;-76
2023/04/30 01:36:23;;;;;;;10.23;5.30;;;10.50;96.70;;;;;;4967590;28;20033;-78
2023/04/30 01:39:10;;;;;;;8.18;5.03;;;10.50;96.70;;;;;;4953974;28;20023;-77
2023/04/30 01:42:06;;;;;;;9.23;4.45;;;10.50;96.70;;;;;;4970724;28;20019;-79
2023/04/30 01:44:44;;;;;;;8.57;4.82;;;10.40;96.70;;;;;;4959910;28;20023;-78
2023/04/30 01:47:29;;;;;;;9.55;4.40;;;10.40;96.80;;;;;;4958361;28;20038;-77
2023/04/30 01:50:04;;;;;;;9.63;5.72;;;10.40;96.90;;;;;;4938293;29;20031;-80
2023/04/30 01:52:49;;;;;;;9.75;5.90;;;10.40;96.90;;;;;;4951924;28;20038;-78
2023/04/30 01:55:26;;;;;;;11.75;6.68;;;10.40;96.90;;;;;;4951715;28;20077;-78
2023/04/30 01:57:58;;;;;;;9.63;4.85;;;10.40;96.80;;;;;;4952853;28;20054;-78
2023/04/30 02:00:26;;;;;;;9.05;5.30;;;10.40;96.80;;;;;;4951873;28;20145;-78
2023/04/30 02:02:51;;;;;;;10.35;5.78;;;10.40;96.80;;;;;;4952621;28;20088;-78
2023/04/30 02:05:17;;;;;;;9.70;5.68;;;10.40;96.90;;;;;;4957500;28;20390;-77
2023/04/30 02:07:45;;;;;;;10.45;6.18;;;10.40;96.90;;;;;;4953322;28;20027;-79
2023/04/30 02:10:11;;;;;;;7.20;4.13;;;10.40;96.90;;;;;;4970309;28;20030;-77
2023/04/30 02:12:37;;;;;;;7.70;3.55;;;10.40;97.10;;;;;;4959096;28;20518;-78
2023/04/30 02:15:04;;;;;;;5.95;3.20;;;10.40;97.30;;;;;;4970926;28;20034;-79
2023/04/30 02:17:31;;;;;;;9.07;3.85;;;10.40;97.60;;;;;;4963006;28;20031;-80
2023/04/30 02:19:56;;;;;;;8.43;5.30;;;10.30;97.60;;;;;;4970444;28;20029;-78
2023/04/30 02:22:22;;;;;;;10.95;3.78;;;10.30;97.50;;;;;;4958036;28;20031;-78
2023/04/30 02:24:48;;;;;;;8.45;4.85;;;10.30;97.80;;;;;;4968359;28;20026;-78
2023/04/30 02:27:14;;;;;;;9.20;4.82;;;10.30;98.00;;;;;;4940179;28;20026;-79
2023/04/30 02:29:40;;;;;;;10.27;3.42;;;10.20;98.10;;;;;;4970299;28;20378;-79
2023/04/30 02:32:06;;;;;;;9.68;4.68;;;10.20;98.50;;;;;;4969656;28;20042;-78
2023/04/30 02:34:31;;;;;;;9.18;3.65;;;10.20;98.70;;;;;;4964443;28;20064;-79
2023/04/30 02:36:57;;;;;;;8.43;3.75;;;10.20;99.10;;;;;;4955266;28;20033;-78
2023/04/30 02:39:23;;;;;;;9.88;4.72;;;10.20;99.10;;;;;;4962406;28;20030;-77
2023/04/30 02:41:49;;;;;;;10.38;5.18;;;10.10;99.10;;;;;;4955404;28;20031;-80
2023/04/30 02:44:14;;;;;;;9.23;4.85;;;10.10;98.90;;;;;;4965907;28;20027;-78
2023/04/30 02:46:40;;;;;;;9.52;6.03;;;10.10;98.90;;;;;;4956513;28;20033;-76
2023/04/30 02:49:06;;;;;;;14.15;7.20;;;10.10;98.70;;;;;;4945846;28;20426;-78
2023/04/30 02:51:32;;;;;;;12.15;6.30;;;10.00;98.50;;;;;;4946980;29;20167;-79
2023/04/30 02:53:57;;;;;;;9.93;5.40;;;10.00;98.40;;;;;;4951834;28;20097;-78
2023/04/30 02:56:23;;;;;;;9.63;5.10;;;10.00;98.30;;;;;;4964048;28;20047;-78
2023/04/30 02:58:49;;;;;;;11.32;6.05;;;10.00;98.30;;;;;;4970755;28;20034;-77
2023/04/30 03:01:15;;;;;;;11.48;7.30;;;10.00;98.30;;;;;;4964501;28;20528;-78
2023/04/30 03:03:40;;;;;;;12.68;7.05;;;10.00;98.20;;;;;;4952201;28;20437;-78
2023/04/30 03:06:06;;;;;;;9.25;4.97;;;10.00;98.20;;;;;;4955646;28;20031;-78
2023/04/30 03:08:32;;;;;;;10.23;4.28;;;9.90;98.10;;;;;;4963993;28;20524;-79
2023/04/30 03:10:57;;;;;;;9.13;5.35;;;9.90;98.10;;;;;;4935919;28;20039;-78
2023/04/30 03:13:26;;;;;;;10.43;5.60;;;9.90;98.10;;;;;;4957586;28;20029;-76
2023/04/30 03:16:03;;;;;;;11.15;5.85;;;9.90;98.20;;;;;;4961695;28;20063;-77
2023/04/30 03:18:29;;;;;;;8.45;5.43;;;9.90;98.20;;;;;;4963555;28;20358;-77
2023/04/30 03:20:56;;;;;;;8.07;4.85;;;9.90;98.20;;;;;;4950423;28;20027;-78
2023/04/30 03:23:22;;;;;;;10.07;5.10;;;9.90;98.20;;;;;;4969776;28;20058;-77
2023/04/30 03:25:48;;;;;;;9.55;4.60;;;9.90;98.20;;;;;;4948461;28;20054;-78
2023/04/30 03:28:14;;;;;;;10.32;5.20;;;9.90;98.30;;;;;;4952502;28;20031;-77
2023/04/30 03:30:40;;;;;;;9.77;5.65;;;9.90;98.40;;;;;;4952153;28;20019;-77
2023/04/30 03:33:06;;;;;;;9.88;5.30;;;9.90;98.40;;;;;;4952121;28;20046;-78
2023/04/30 03:35:32;;;;;;;9.38;6.03;;;9.90;98.30;;;;;;4969456;28;20033;-78
2023/04/30 03:37:59;;;;;;;13.75;6.78;;;9.90;98.20;;;;;;4967561;28;20090;-78
2023/04/30 03:40:24;;;;;;;11.43;5.97;;;9.90;98.10;;;;;;4956746;28;20363;-80
2023/04/30 03:42:50;;;;;;;12.35;7.22;;;9.90;98.00;;;;;;4954346;28;20034;-79
2023/04/30 03:45:16;;;;;;;10.15;5.93;;;9.90;98.00;;;;;;4968565;28;20054;-78
2023/04/30 03:47:42;;;;;;;11.23;6.43;;;9.90;97.90;;;;;;4969747;28;20117;-79
2023/04/30 03:50:09;;;;;;;8.95;4.63;;;9.90;98.00;;;;;;4967910;28;20139;-77
2023/04/30 03:52:38;;;;;;;16.92;5.95;;;9.90;97.90;;;;;;4949827;28;20078;-78
2023/04/30 03:55:04;;;;;;;9.75;6.22;;;9.80;98.10;;;;;;4970015;28;20034;-78
2023/04/30 03:57:31;;;;;;;12.55;6.85;;;9.80;98.10;;;;;;4955553;28;20023;-78
2023/04/30 03:59:57;;;;;;;10.45;5.53;;;9.80;98.10;;;;;;4950347;28;20117;-78
2023/04/30 04:02:24;;;;;;;11.77;6.55;;;9.70;98.20;;;;;;4968750;28;20019;-78
2023/04/30 04:04:50;;;;;;;10.75;5.85;;;9.70;98.30;;;;;;4964688;28;20143;-78
2023/04/30 04:07:16;;;;;;;12.57;6.38;;;9.70;98.30;;;;;;4969325;28;20390;-76
2023/04/30 04:09:43;;;;;;;10.73;6.53;;;9.70;98.30;;;;;;4952051;28;20015;-78
2023/04/30 04:12:09;;;;;;;12.07;6.22;;;9.70;98.30;;;;;;4980186;28;20040;-78
2023/04/30 04:14:34;;;;;;;11.38;6.88;;;9.70;98.40;;;;;;4977449;28;20045;-79
2023/04/30 04:17:00;;;;;;;13.68;7.55;;;9.70;98.50;;;;;;4978112;28;20038;-77
2023/04/30 04:19:27;;;;;;;16.75;7.45;;;9.70;98.50;;;;;;4972903;28;20023;-78
2023/04/30 04:21:52;;;;;;;11.15;6.70;;;9.60;98.60;;;;;;4960270;29;20047;-78
2023/04/30 04:24:20;;;;;;;17.25;9.98;;;9.60;98.70;;;;;;4979069;28;20054;-78
2023/04/30 04:26:46;;;;;;;11.98;8.18;;;9.60;98.70;;;;;;4967283;28;20099;-78
2023/04/30 04:29:12;;;;;;;17.98;9.32;;;9.60;98.70;;;;;;4964426;28;20047;-77
2023/04/30 04:31:37;;;;;;;13.20;6.80;;;9.50;98.80;;;;;;4982052;28;20027;-78
2023/04/30 04:34:05;;;;;;;13.10;6.88;;;9.50;98.90;;;;;;4982054;28;20047;-77
2023/04/30 04:36:32;;;;;;;13.23;7.82;;;9.50;98.90;;;;;;4973905;28;20445;-77
2023/04/30 04:39:02;;;;;;;12.98;8.02;;;9.60;98.90;;;;;;4960216;28;20055;-77
2023/04/30 04:41:32;;;;;;;11.00;6.72;;;9.60;98.80;;;;;;4983066;28;20058;-78
2023/04/30 04:43:58;;;;;;;14.27;7.15;;;9.60;98.70;;;;;;4960638;28;20027;-78
2023/04/30 04:46:25;;;;;;;12.60;8.35;;;9.70;98.70;;;;;;4980730;28;20030;-78
2023/04/30 04:48:51;;;;;;;13.52;8.05;;;9.70;98.60;;;;;;4976750;28;20340;-77
2023/04/30 04:51:17;;;;;;;12.95;8.15;;;9.70;98.60;;;;;;4979595;28;20077;-79
2023/04/30 04:53:43;;;;;;;12.50;8.68;;;9.70;98.60;;;;;;4967172;28;20038;-78
2023/04/30 04:56:11;;;;;;;14.73;9.77;;;9.70;98.60;;;;;;4965854;28;20035;-78
2023/04/30 04:58:37;;;;;;;11.43;7.00;;;9.70;98.60;;;;;;4975671;28;20054;-78
2023/04/30 05:01:06;;;;;;;14.18;9.30;;;9.70;98.60;;;;;;4958409;28;20071;-78
2023/04/30 05:03:35;;;;;;;16.60;9.52;;;9.70;98.60;;;;;;4955428;28;20085;-78
2023/04/30 05:06:02;;;;;;;16.23;9.80;;;9.80;98.60;;;;;;4966957;28;20110;-79
2023/04/30 05:08:27;;;;;;;14.70;9.43;;;9.80;98.60;;;;;;4968210;28;20038;-78
2023/04/30 05:10:53;;;;;;;16.35;7.93;;;9.80;98.60;;;;;;4967436;28;20035;-78
2023/04/30 05:13:19;;;;;;;14.55;7.75;;;9.80;98.80;;;;;;4971348;28;20077;-78
2023/04/30 05:15:45;;;;;;;17.70;10.85;;;9.80;98.80;;;;;;4970378;28;20481;-77
2023/04/30 05:18:11;;;;;;;18.05;9.32;;;9.90;98.80;;;;;;4968464;28;20090;-78
2023/04/30 05:20:37;;;;;;;15.65;10.43;;;9.90;98.70;;;;;;4942616;29;20031;-78
2023/04/30 05:23:02;;;;;;;16.30;9.13;;;10.00;98.70;;;;;;4966721;28;20062;-78
2023/04/30 05:25:28;;;;;;;15.13;9.77;;;10.00;98.70;;;;;;4918483;29;20046;-76
2023/04/30 05:27:55;;;;;;;16.48;9.60;;;10.00;98.70;;;;;;4960774;28;20030;-76
2023/04/30 05:30:21;;;;;;;17.20;10.63;;;10.00;99.00;;;;;;4972418;28;20101;-78
2023/04/30 05:32:49;;;;;;;17.83;11.18;;;10.10;98.70;;;;;;4972250;28;20485;-79
2023/04/30 05:35:16;;;;;;;15.52;10.38;;;10.10;98.70;;;;;;4952994;29;20038;-77
2023/04/30 05:37:41;;;;;;;15.07;9.23;;;10.20;98.70;;;;;;4954126;28;20070;-77
2023/04/30 05:40:08;;;;;;;15.68;10.98;;;10.20;98.70;;;;;;4969375;28;20023;-77
2023/04/30 05:42:33;;;;;;;18.48;11.02;;;10.30;98.60;;;;;;4971532;28;20026;-79
2023/04/30 05:45:00;;;;;;;19.73;9.68;;;10.30;98.50;;;;;;4954669;28;20018;-78
2023/04/30 05:47:25;;;;;;;13.77;7.90;;;10.30;98.50;;;;;;4959121;28;20070;-78
2023/04/30 05:49:51;;;;;;;15.57;7.32;;;10.40;98.50;;;;;;4950107;28;20029;-78
2023/04/30 05:52:17;;;;;;;15.75;9.10;;;10.50;98.50;;;;;;4954826;28;20078;-76
2023/04/30 05:54:42;;;;;;;14.52;8.80;;;10.50;98.30;;;;;;4971713;28;20512;-78
2023/04/30 05:57:08;;;;;;;11.70;6.72;;;10.60;98.20;;;;;;4972436;28;20397;-78
2023/04/30 05:59:33;;;;;;;12.52;7.50;;;10.70;98.20;;;;;;4972259;28;20589;-78
2023/04/30 06:01:59;;;;;;;14.00;8.30;;;10.70;98.10;;;;;;4972474;28;20038;-77
2023/04/30 06:04:25;;;;;;;15.50;7.05;;;10.80;98.20;;;;;;4946731;28;20026;-77
2023/04/30 06:06:51;;;;;;;16.15;7.60;;;10.80;98.20;;;;;;4969191;28;20094;-78
2023/04/30 06:09:16;;;;;;;14.55;7.28;;;10.90;98.30;;;;;;4951815;28;20077;-79
2023/04/30 06:11:44;;;;;;;17.77;6.22;;;10.90;97.90;;;;;;4952754;28;20470;-78
2023/04/30 06:14:10;;;;;;;19.67;10.27;;;11.00;97.70;;;;;;4940155;28;20028;-79
2023/04/30 06:16:37;;;;;;;16.50;9.88;;;11.00;97.30;;;;;;4964539;28;20022;-77
2023/04/30 06:19:02;;;;;;;12.77;8.80;;;11.10;97.50;;;;;;4948676;29;20078;-77
2023/04/30 06:21:28;;;;;;;17.20;7.18;;;11.20;97.20;;;;;;4968120;28;20479;-74
2023/04/30 06:23:54;;;;;;;17.02;6.40;;;11.30;97.10;;;;;;4950641;28;20022;-74
2023/04/30 06:26:19;;;;;;;26.55;6.55;;;11.70;97.80;;;;;;4971195;28;20026;-76
2023/04/30 06:28:45;;;;;;;11.02;6.63;;;12.20;97.60;;;;;;4964818;28;20032;-76
2023/04/30 06:31:11;;;;;;;13.15;6.40;;;12.50;97.30;;;;;;4969394;28;20027;-76
2023/04/30 06:33:37;;;;;;;13.35;7.00;;;12.80;97.00;;;;;;4962822;28;20043;-76
2023/04/30 06:36:03;;;;;;;9.68;5.80;;;12.90;96.70;;;;;;4968800;28;20065;-77
2023/04/30 06:38:29;;;;;;;9.32;6.88;;;12.90;96.40;;;;;;4970255;28;20030;-74
2023/04/30 06:40:55;;;;;;;11.85;6.70;;;13.00;96.30;;;;;;4969284;28;20023;-74
2023/04/30 06:43:20;;;;;;;8.52;5.95;;;13.20;96.00;;;;;;4964180;28;20030;-76
2023/04/30 06:45:46;;;;;;;9.23;4.90;;;13.20;95.90;;;;;;4959766;28;20046;-77
2023/04/30 06:48:12;;;;;;;7.95;5.18;;;13.30;95.70;;;;;;4954539;28;20450;-79
2023/04/30 06:50:43;;;;;;;9.93;6.60;;;13.30;95.50;;;;;;4970351;28;20023;-76
2023/04/30 06:53:10;;;;;;;10.18;6.28;;;13.30;95.10;;;;;;4956091;28;20035;-76
2023/04/30 06:55:36;;;;;;;10.43;5.97;;;13.20;95.00;;;;;;4958187;28;20110;-77
2023/04/30 06:58:02;;;;;;;10.88;6.35;;;13.20;95.10;;;;;;4974171;28;20061;-77
2023/04/30 07:00:28;;;;;;;10.52;4.57;;;13.10;94.60;;;;;;4974934;28;20485;-77
2023/04/30 07:02:55;;;;;;;8.27;5.00;;;13.20;94.50;;;;;;4972219;28;20111;-77
2023/04/30 07:05:21;;;;;;;7.03;3.67;;;13.10;94.10;;;;;;4965789;28;20031;-76
2023/04/30 07:07:48;;;;;;;10.45;5.35;;;13.20;94.20;;;;;;4948059;28;20059;-76
2023/04/30 07:10:13;;;;;;;9.18;5.00;;;13.40;94.00;;;;;;4960996;28;20038;-76
2023/04/30 07:12:39;;;;;;;9.45;5.05;;;13.40;93.60;;;;;;4972964;28;20038;-76
2023/04/30 07:15:05;;;;;;;8.65;5.63;;;13.40;93.80;;;;;;4960960;28;20440;-76
2023/04/30 07:17:30;;;;;;;7.30;4.68;;;13.50;93.70;;;;;;4971332;28;20054;-76
2023/04/30 07:19:56;;;;;;;7.25;4.47;;;13.60;93.70;;;;;;4953349;28;20050;-76
2023/04/30 07:22:22;;;;;;;9.77;5.07;;;13.80;93.70;;;;;;4963309;28;20120;-77
2023/04/30 07:24:47;;;;;;;8.90;4.70;;;13.90;93.50;;;;;;4963797;28;20165;-76
2023/04/30 07:27:13;;;;;;;8.35;4.45;;;14.00;93.30;;;;;;4968947;28;20548;-77
2023/04/30 07:29:38;;;;;;;10.40;5.18;;;14.10;93.00;;;;;;4957346;28;20106;-77
2023/04/30 07:32:04;;;;;;;7.43;4.25;;;14.30;93.00;;;;;;4956347;28;20074;-77
2023/04/30 07:34:30;;;;;;;11.15;4.72;;;14.40;92.80;;;;;;4956459;28;20406;-76
2023/04/30 07:36:55;;;;;;;8.02;3.95;;;14.50;92.40;;;;;;4965965;28;20481;-76
2023/04/30 07:39:21;;;;;;;7.43;4.28;;;14.60;92.60;;;;;;4970700;28;20106;-74
2023/04/30 07:41:48;;;;;;;7.32;3.60;;;14.70;92.50;;;;;;4963108;28;20146;-76
2023/04/30 07:44:13;;;;;;;5.90;3.00;;;14.90;92.30;;;;;;4974112;28;20082;-76
2023/04/30 07:46:39;;;;;;;4.82;3.08;;;15.10;92.20;;;;;;4964943;28;20053;-74
2023/04/30 07:49:05;;;;;;;5.43;3.33;;;15.20;91.90;;;;;;4967678;28;20074;-76
2023/04/30 07:51:31;;;;;;;6.70;3.67;;;15.30;91.90;;;;;;4945739;29;20058;-74
2023/04/30 07:53:57;;;;;;;7.15;4.00;;;15.50;91.70;;;;;;4971639;28;20709;-77
2023/04/30 07:56:23;;;;;;;8.82;3.60;;;15.60;91.50;;;;;;4967251;28;20027;-76
2023/04/30 07:58:48;;;;;;;5.05;2.90;;;15.80;91.40;;;;;;4972725;28;20031;-77
2023/04/30 08:01:14;;;;;;;8.48;3.90;;;15.90;91.30;;;;;;4967213;28;20878;-78
2023/04/30 08:03:40;;;;;;;6.75;3.28;;;16.00;91.30;;;;;;4965705;28;20058;-76
2023/04/30 08:06:06;;;;;;;6.75;3.13;;;16.00;91.10;;;;;;4973793;28;20031;-77
2023/04/30 08:08:32;;;;;;;6.57;3.58;;;16.10;91.00;;;;;;4971325;28;20030;-79
2023/04/30 08:10:57;;;;;;;6.65;2.40;;;16.20;90.90;;;;;;4980622;28;20449;-77
2023/04/30 08:13:23;;;;;;;7.75;3.35;;;16.30;90.60;;;;;;4973282;28;20058;-77
2023/04/30 08:15:49;;;;;;;7.88;3.75;;;16.30;90.50;;;;;;4966906;28;20148;-78
2023/04/30 08:18:15;;;;;;;8.35;3.42;;;16.40;90.60;;;;;;4965476;28;20030;-78
2023/04/30 08:20:40;;;;;;;5.32;2.22;;;16.50;90.50;;;;;;4971603;28;20034;-78
2023/04/30 08:23:06;;;;;;;6.35;3.55;;;16.60;90.50;;;;;;4979435;28;20094;-77
2023/04/30 08:25:33;;;;;;;9.70;3.17;;;16.70;90.40;;;;;;4973038;28;20062;-79
2023/04/30 08:27:59;;;;;;;5.68;2.78;;;16.90;90.20;;;;;;4970476;28;20075;-77
2023/04/30 08:30:24;;;;;;;5.82;3.08;;;16.90;90.10;;;;;;4966896;28;20023;-76
2023/04/30 08:32:51;;;;;;;6.25;2.90;;;17.00;90.00;;;;;;4965895;28;20861;-77
2023/04/30 08:35:16;;;;;;;5.75;2.88;;;17.10;89.80;;;;;;4964727;28;20031;-79
2023/04/30 08:37:42;;;;;;;8.20;4.70;;;17.30;89.50;;;;;;4964490;28;20066;-76
2023/04/30 08:40:10;;;;;;;7.80;4.68;;;17.30;85.10;;;;;;4949959;28;20114;-77
2023/04/30 08:42:38;;;;;;;8.13;3.38;;;17.30;86.00;;;;;;4965559;28;20023;-80
2023/04/30 08:45:04;;;;;;;7.93;4.60;;;17.30;87.70;;;;;;4962582;28;20011;-79
2023/04/30 08:47:30;;;;;;;7.07;4.32;;;17.40;86.50;;;;;;4968785;28;20023;-80
2023/04/30 08:49:56;;;;;;;9.07;4.55;;;17.40;83.30;;;;;;4968191;28;20045;-77
2023/04/30 08:52:21;;;;;;;9.57;4.88;;;17.40;80.40;;;;;;4960782;28;20409;-77
2023/04/30 08:54:49;;;;;;;13.07;6.20;;;17.40;83.90;;;;;;4962173;28;20500;-76
2023/04/30 08:57:15;;;;;;;8.75;4.07;;;17.40;83.60;;;;;;4971299;28;20056;-79
2023/04/30 08:59:45;;;;;;;6.93;4.05;;;17.30;82.10;;;;;;4968869;28;20039;-80
2023/04/30 09:02:10;;;;;;;10.25;3.47;;;17.30;85.20;;;;;;4953543;28;20027;-79
2023/04/30 09:04:36;;;;;;;8.43;3.28;;;17.50;87.30;;;;;;4953627;28;20023;-78
2023/04/30 09:07:03;;;;;;;7.60;3.80;;;17.60;82.10;;;;;;4963702;28;20042;-79
2023/04/30 09:09:36;;;;;;;6.70;3.38;;;17.60;81.10;;;;;;4958582;28;20473;-79
2023/04/30 09:12:19;;;;;;;6.50;3.22;;;17.70;82.50;;;;;;4963632;28;20660;-77
2023/04/30 09:15:00;;;;;;;6.85;3.63;;;17.70;80.70;;;;;;4967761;28;20537;-82
2023/04/30 09:17:25;;;;;;;8.80;3.97;;;17.80;80.60;;;;;;4976326;28;20045;-80
2023/04/30 09:19:52;;;;;;;8.57;5.05;;;17.70;81.80;;;;;;4968539;28;20576;-81
2023/04/30 09:22:20;;;;;;;8.75;3.50;;;17.90;83.30;;;;;;4976466;28;20034;-79
2023/04/30 09:24:48;;;;;;;7.03;4.03;;;18.00;76.70;;;;;;4970140;28;20026;-78
2023/04/30 09:27:21;;;;;;;7.95;4.60;;;18.00;77.60;;;;;;4967692;28;20028;-80
2023/04/30 09:29:48;;;;;;;12.85;5.70;;;18.10;77.10;;;;;;4953640;28;20083;-78
2023/04/30 09:32:14;;;;;;;8.73;5.85;;;18.20;78.10;;;;;;4965757;28;20124;-78
2023/04/30 09:34:40;;;;;;;8.85;4.18;;;18.30;76.90;;;;;;4969439;28;20058;-78
2023/04/30 09:37:06;;;;;;;6.68;3.30;;;18.30;78.50;;;;;;4966698;28;20078;-77
2023/04/30 09:39:33;;;;;;;10.27;4.43;;;18.50;80.20;;;;;;4957873;28;20027;-80
2023/04/30 09:42:11;;;;;;;7.20;3.65;;;18.70;77.00;;;;;;4962279;28;20554;-80
2023/04/30 09:44:39;;;;;;;7.90;4.13;;;18.70;79.40;;;;;;4950049;28;20106;-81
2023/04/30 09:47:17;;;;;;;6.75;4.00;;;18.60;76.20;;;;;;4973157;28;20015;-82
2023/04/30 09:49:50;;;;;;;5.38;2.53;;;18.50;74.20;;;;;;4964862;28;20126;-81
2023/04/30 09:52:16;;;;;;;8.05;3.13;;;18.70;80.60;;;;;;4970120;28;20045;-79
2023/04/30 09:54:45;;;;;;;6.18;2.90;;;18.90;81.80;;;;;;4966294;28;20388;-81
2023/04/30 09:57:13;;;;;;;5.30;2.65;;;19.00;77.50;;;;;;4969842;28;20050;-79
2023/04/30 09:59:44;;;;;;;7.00;3.72;;;19.10;81.60;;;;;;4960045;28;20098;-80
2023/04/30 10:02:12;;;;;;;7.38;4.07;;;19.20;75.10;;;;;;4945684;28;20432;-80
2023/04/30 10:04:42;;;;;;;4.68;2.88;;;19.20;73.70;;;;;;4967886;28;20497;-81
2023/04/30 10:07:11;;;;;;;5.72;3.08;;;19.10;71.40;;;;;;4966060;28;20489;-80
2023/04/30 10:09:46;;;;;;;9.05;5.32;;;19.20;74.20;;;;;;4966088;28;20020;-80
2023/04/30 10:12:14;;;;;;;8.40;4.32;;;19.30;71.10;;;;;;4962078;28;20035;-80
2023/04/30 10:14:50;;;;;;;5.35;2.97;;;19.30;72.30;;;;;;4946166;28;20027;-78
2023/04/30 10:17:17;;;;;;;6.82;3.60;;;19.50;75.00;;;;;;4962614;28;20481;-80
2023/04/30 10:19:47;;;;;;;7.80;2.67;;;19.60;69.20;;;;;;4958076;28;20015;-78
2023/04/30 10:22:13;;;;;;;5.47;1.73;;;19.60;76.30;;;;;;4956821;28;20034;-76
2023/04/30 10:24:40;;;;;;;5.53;2.83;;;19.70;81.30;;;;;;4961728;28;20639;-80
2023/04/30 10:27:06;;;;;;;8.30;3.78;;;19.70;80.40;;;;;;4969489;28;20444;-82
2023/04/30 10:29:33;;;;;;;7.35;3.33;;;19.70;70.40;;;;;;4967415;28;20050;-82
2023/04/30 10:32:00;;;;;;;7.45;3.80;;;19.90;71.60;;;;;;4959585;28;20058;-83
2023/04/30 10:34:58;;;;;;;8.90;4.32;;;20.10;73.00;;;;;;4965542;28;20081;-80
2023/04/30 10:37:35;;;;;;;5.38;2.92;;;20.20;70.30;;;;;;4904600;28;20046;-80
2023/04/30 10:40:03;;;;;;;6.55;4.22;;;20.30;75.00;;;;;;4967580;28;20032;-79
2023/04/30 10:42:29;;;;;;;7.10;4.68;;;20.30;69.30;;;;;;4966371;28;20078;-79
2023/04/30 10:44:55;;;;;;;8.07;4.10;;;20.40;66.30;;;;;;4962834;28;20490;-79
2023/04/30 10:47:27;;;;;;;9.07;4.47;;;20.40;70.60;;;;;;4962020;28;20034;-80
2023/04/30 10:50:04;;;;;;;7.18;4.53;;;20.50;70.40;;;;;;4947939;28;20769;-78
2023/04/30 10:52:30;;;;;;;5.07;3.30;;;20.40;66.50;;;;;;4960947;28;20031;-79
2023/04/30 10:54:55;;;;;;;9.52;3.33;;;20.30;68.90;;;;;;4960094;28;20639;-79
2023/04/30 10:57:21;;;;;;;6.82;3.30;;;20.30;73.80;;;;;;4970353;28;20574;-80
2023/04/30 10:59:51;;;;;;;5.63;3.42;;;20.30;69.20;;;;;;4963431;28;20062;-81
2023/04/30 11:02:18;;;;;;;7.28;3.58;;;20.40;68.40;;;;;;4960908;28;20031;-84
2023/04/30 11:05:32;;;;;;;7.18;3.80;;;20.70;67.30;;;;;;4975770;28;20030;-81
2023/04/30 11:07:57;;;;;;;6.82;2.88;;;20.70;64.40;;;;;;4878399;29;20471;-83
2023/04/30 11:10:25;;;;;;;6.50;2.65;;;20.80;68.60;;;;;;4957491;28;20055;-81
2023/04/30 11:12:53;;;;;;;7.38;4.47;;;21.00;74.50;;;;;;4966760;28;20046;-81
2023/04/30 11:15:21;;;;;;;8.20;4.50;;;20.90;63.40;;;;;;4972328;28;20023;-84
2023/04/30 11:17:48;;;;;;;6.60;2.70;;;20.90;64.00;;;;;;4972213;28;20504;-83
2023/04/30 11:20:18;;;;;;;8.43;2.70;;;20.90;70.80;;;;;;4972269;28;20030;-81
2023/04/30 11:22:44;;;;;;;7.57;4.22;;;20.90;73.90;;;;;;4948646;28;20031;-83
2023/04/30 11:25:14;;;;;;;8.40;4.28;;;21.00;68.10;;;;;;4964705;28;20027;-82
2023/04/30 11:27:46;;;;;;;7.72;4.72;;;21.00;63.60;;;;;;4963123;28;20031;-81
2023/04/30 11:30:14;;;;;;;8.20;3.47;;;21.10;66.40;;;;;;4971055;28;20094;-81
2023/04/30 11:32:42;;;;;;;6.05;3.28;;;21.20;72.10;;;;;;4969060;28;20464;-80
2023/04/30 11:35:08;;;;;;;6.10;3.25;;;21.40;68.70;;;;;;4974928;28;20821;-81
2023/04/30 11:37:36;;;;;;;7.68;3.63;;;21.60;71.50;;;;;;4969993;28;20028;-81
2023/04/30 11:40:04;;;;;;;7.32;4.25;;;21.70;64.60;;;;;;4965862;28;20405;-80
2023/04/30 11:42:33;;;;;;;7.03;3.20;;;21.80;63.80;;;;;;4952340;28;20023;-82
2023/04/30 11:45:08;;;;;;;7.57;3.55;;;21.80;68.20;;;;;;4954459;28;20019;-82
2023/04/30 11:47:45;;;;;;;7.15;4.07;;;21.90;64.90;;;;;;4967324;28;20022;-79
2023/04/30 11:50:13;;;;;;;7.07;3.25;;;22.00;65.00;;;;;;4963656;28;20074;-79
2023/04/30 11:52:42;;;;;;;7.03;3.15;;;21.90;65.50;;;;;;4962633;28;20637;-79
2023/04/30 11:55:14;;;;;;;6.35;3.15;;;22.00;67.90;;;;;;4967103;28;20030;-79
2023/04/30 11:57:41;;;;;;;5.40;2.53;;;22.10;65.10;;;;;;4970311;28;20034;-79
2023/04/30 12:00:12;;;;;;;8.88;3.75;;;22.30;65.50;;;;;;4969713;28;20435;-78
2023/04/30 12:02:38;;;;;;;5.60;2.85;;;22.30;60.80;;;;;;4971737;28;20049;-79
2023/04/30 12:05:11;;;;;;;7.30;3.50;;;22.10;60.70;;;;;;4969980;28;20374;-79
2023/04/30 12:07:37;;;;;;;5.07;2.50;;;22.10;62.70;;;;;;4946157;28;20019;-78
2023/04/30 12:10:03;;;;;;;6.15;2.33;;;22.10;71.40;;;;;;4962229;28;20027;-78
2023/04/30 12:12:29;;;;;;;7.07;1.92;;;22.40;73.10;;;;;;4965483;28;20037;-79
2023/04/30 12:14:56;;;;;;;5.45;3.05;;;22.70;76.60;;;;;;4963690;28;20052;-78
2023/04/30 12:17:34;;;;;;;5.65;2.15;;;22.80;61.30;;;;;;4964928;28;20557;-78
2023/04/30 12:20:00;;;;;;;5.95;2.00;;;22.80;72.40;;;;;;4960084;28;20026;-79
2023/04/30 12:22:28;;;;;;;5.95;2.97;;;23.00;76.60;;;;;;4963462;28;20011;-78
2023/04/30 12:24:55;;;;;;;5.72;2.15;;;22.90;61.80;;;;;;4943747;28;20043;-79
2023/04/30 12:27:21;;;;;;;5.25;2.40;;;22.80;70.40;;;;;;4963930;28;20027;-78
2023/04/30 12:29:48;;;;;;;6.88;1.92;;;22.80;65.30;;;;;;4964724;28;20491;-81
2023/04/30 12:32:17;;;;;;;5.13;2.40;;;22.70;70.90;;;;;;4963654;28;20035;-78
2023/04/30 12:34:44;;;;;;;5.13;2.25;;;22.60;71.50;;;;;;4968836;28;20026;-80
2023/04/30 12:37:13;;;;;;;5.03;1.95;;;22.60;72.30;;;;;;4961432;28;20022;-79
2023/04/30 12:39:39;;;;;;;6.03;1.75;;;22.80;77.30;;;;;;4958735;28;20540;-81
2023/04/30 12:42:05;;;;;;;4.68;1.80;;;22.90;79.30;;;;;;4963019;28;20039;-81
2023/04/30 12:44:30;;;;;;;4.88;1.50;;;23.10;81.90;;;;;;4962732;28;20027;-82
2023/04/30 12:46:59;;;;;;;4.30;1.50;;;23.40;84.00;;;;;;4961151;28;20055;-82
2023/04/30 12:49:25;;;;;;;7.13;1.80;;;23.50;83.50;;;;;;4965033;28;20023;-81